sensor_id;sensor_type;location;lat;lon;timestamp;pressure;altitude;pressure_sealevel;temperature;humidity
36378;BME280;22402;42.746;23.606;2022-11-02T00:01:23;94120.28;;;12.80;73.11
36378;BME280;22402;42.746;23.606;2022-11-02T00:03:48;94125.09;;;12.75;72.59
36378;BME280;22402;42.746;23.606;2022-11-02T00:06:14;94130.50;;;12.73;73.10
36378;BME280;22402;42.746;23.606;2022-11-02T00:08:39;94124.69;;;12.70;72.97
36378;BME280;22402;42.746;23.606;2022-11-02T00:11:05;94131.06;;;12.67;73.72
36378;BME280;22402;42.746;23.606;2022-11-02T00:13:30;94124.72;;;12.60;73.63
36378;BME280;22402;42.746;23.606;2022-11-02T00:15:56;94128.03;;;12.62;73.86
36378;BME280;22402;42.746;23.606;2022-11-02T00:18:21;94118.78;;;12.58;74.02
36378;BME280;22402;42.746;23.606;2022-11-02T00:20:47;94130.09;;;12.59;73.83
36378;BME280;22402;42.746;23.606;2022-11-02T00:23:13;94126.50;;;12.60;73.87
36378;BME280;22402;42.746;23.606;2022-11-02T00:25:45;94124.19;;;12.57;74.12
36378;BME280;22402;42.746;23.606;2022-11-02T00:28:12;94123.19;;;12.58;73.84
36378;BME280;22402;42.746;23.606;2022-11-02T00:30:37;94120.47;;;12.49;74.48
36378;BME280;22402;42.746;23.606;2022-11-02T00:33:03;94118.16;;;12.46;74.32
36378;BME280;22402;42.746;23.606;2022-11-02T00:35:28;94113.84;;;12.45;74.71
36378;BME280;22402;42.746;23.606;2022-11-02T00:37:54;94118.53;;;12.51;74.72
36378;BME280;22402;42.746;23.606;2022-11-02T00:40:19;94123.75;;;12.51;74.99
36378;BME280;22402;42.746;23.606;2022-11-02T00:42:45;94121.84;;;12.53;73.95
36378;BME280;22402;42.746;23.606;2022-11-02T00:45:10;94111.38;;;12.53;73.95
36378;BME280;22402;42.746;23.606;2022-11-02T00:47:36;94109.03;;;12.50;74.05
36378;BME280;22402;42.746;23.606;2022-11-02T00:50:01;94096.94;;;12.40;74.38
36378;BME280;22402;42.746;23.606;2022-11-02T00:52:27;94113.59;;;12.48;74.36
36378;BME280;22402;42.746;23.606;2022-11-02T00:54:52;94116.19;;;12.48;74.38
36378;BME280;22402;42.746;23.606;2022-11-02T00:57:17;94110.00;;;12.40;74.66
36378;BME280;22402;42.746;23.606;2022-11-02T00:59:43;94113.19;;;12.43;74.62
36378;BME280;22402;42.746;23.606;2022-11-02T01:02:08;94117.72;;;12.41;74.69
36378;BME280;22402;42.746;23.606;2022-11-02T01:04:33;94117.19;;;12.38;74.90
36378;BME280;22402;42.746;23.606;2022-11-02T01:06:59;94113.88;;;12.36;74.52
36378;BME280;22402;42.746;23.606;2022-11-02T01:09:24;94107.13;;;12.33;74.73
36378;BME280;22402;42.746;23.606;2022-11-02T01:11:49;94109.19;;;12.29;74.57
36378;BME280;22402;42.746;23.606;2022-11-02T01:14:15;94110.31;;;12.27;74.73
36378;BME280;22402;42.746;23.606;2022-11-02T01:16:40;94108.25;;;12.21;75.38
36378;BME280;22402;42.746;23.606;2022-11-02T01:19:06;94102.31;;;12.19;75.86
36378;BME280;22402;42.746;23.606;2022-11-02T01:21:31;94096.41;;;12.17;75.46
36378;BME280;22402;42.746;23.606;2022-11-02T01:23:56;94097.63;;;12.13;75.68
36378;BME280;22402;42.746;23.606;2022-11-02T01:26:22;94099.00;;;12.07;75.63
36378;BME280;22402;42.746;23.606;2022-11-02T01:28:47;94098.88;;;12.08;75.48
36378;BME280;22402;42.746;23.606;2022-11-02T01:31:12;94092.41;;;12.03;76.01
36378;BME280;22402;42.746;23.606;2022-11-02T01:33:42;94094.50;;;11.99;75.67
36378;BME280;22402;42.746;23.606;2022-11-02T01:36:08;94087.03;;;11.95;75.60
36378;BME280;22402;42.746;23.606;2022-11-02T01:38:33;94089.13;;;11.91;75.73
36378;BME280;22402;42.746;23.606;2022-11-02T01:40:59;94102.28;;;11.90;75.83
36378;BME280;22402;42.746;23.606;2022-11-02T01:43:25;94093.09;;;11.85;75.34
36378;BME280;22402;42.746;23.606;2022-11-02T01:45:59;94091.53;;;11.83;75.75
36378;BME280;22402;42.746;23.606;2022-11-02T01:48:33;94096.09;;;11.81;76.10
36378;BME280;22402;42.746;23.606;2022-11-02T01:51:02;94092.91;;;11.77;75.52
36378;BME280;22402;42.746;23.606;2022-11-02T01:53:29;94101.84;;;11.75;76.40
36378;BME280;22402;42.746;23.606;2022-11-02T01:55:56;94097.72;;;11.72;76.01
36378;BME280;22402;42.746;23.606;2022-11-02T01:58:22;94096.22;;;11.70;75.91
36378;BME280;22402;42.746;23.606;2022-11-02T02:00:47;94096.47;;;11.67;75.95
36378;BME280;22402;42.746;23.606;2022-11-02T02:03:14;94098.41;;;11.64;76.57
36378;BME280;22402;42.746;23.606;2022-11-02T02:05:47;94099.75;;;11.59;76.74
36378;BME280;22402;42.746;23.606;2022-11-02T02:08:15;94100.56;;;11.59;76.31
36378;BME280;22402;42.746;23.606;2022-11-02T02:10:42;94091.38;;;11.55;76.10
36378;BME280;22402;42.746;23.606;2022-11-02T02:13:07;94098.50;;;11.53;77.00
36378;BME280;22402;42.746;23.606;2022-11-02T02:18:17;94097.13;;;11.49;76.91
36378;BME280;22402;42.746;23.606;2022-11-02T02:20:56;94094.22;;;11.43;76.75
36378;BME280;22402;42.746;23.606;2022-11-02T02:26:51;94085.16;;;11.37;76.77
36378;BME280;22402;42.746;23.606;2022-11-02T02:29:21;94088.44;;;11.39;77.37
36378;BME280;22402;42.746;23.606;2022-11-02T02:31:59;94081.84;;;11.35;77.56
36378;BME280;22402;42.746;23.606;2022-11-02T02:34:32;94085.16;;;11.37;77.01
36378;BME280;22402;42.746;23.606;2022-11-02T02:37:13;94081.72;;;11.36;77.20
36378;BME280;22402;42.746;23.606;2022-11-02T02:39:46;94085.16;;;11.37;76.96
36378;BME280;22402;42.746;23.606;2022-11-02T02:44:50;94085.69;;;11.31;77.39
36378;BME280;22402;42.746;23.606;2022-11-02T02:47:20;94085.94;;;11.28;77.63
36378;BME280;22402;42.746;23.606;2022-11-02T02:49:51;94083.72;;;11.23;77.75
36378;BME280;22402;42.746;23.606;2022-11-02T02:52:19;94075.19;;;11.21;77.94
36378;BME280;22402;42.746;23.606;2022-11-02T02:54:46;94086.75;;;11.18;78.71
36378;BME280;22402;42.746;23.606;2022-11-02T02:57:16;94088.50;;;11.18;78.22
36378;BME280;22402;42.746;23.606;2022-11-02T02:59:46;94086.88;;;11.17;78.45
36378;BME280;22402;42.746;23.606;2022-11-02T03:02:19;94089.75;;;11.14;78.50
36378;BME280;22402;42.746;23.606;2022-11-02T03:04:46;94078.31;;;11.15;78.11
36378;BME280;22402;42.746;23.606;2022-11-02T03:07:16;94080.81;;;11.16;77.93
36378;BME280;22402;42.746;23.606;2022-11-02T03:09:49;94090.28;;;11.17;78.23
36378;BME280;22402;42.746;23.606;2022-11-02T03:15:38;94075.31;;;11.10;78.57
36378;BME280;22402;42.746;23.606;2022-11-02T03:23:53;94086.84;;;11.07;78.22
36378;BME280;22402;42.746;23.606;2022-11-02T03:26:24;94081.19;;;11.02;78.47
36378;BME280;22402;42.746;23.606;2022-11-02T03:31:44;94088.56;;;10.97;78.55
36378;BME280;22402;42.746;23.606;2022-11-02T03:34:21;94085.41;;;10.93;77.98
36378;BME280;22402;42.746;23.606;2022-11-02T03:36:53;94078.25;;;10.86;78.45
36378;BME280;22402;42.746;23.606;2022-11-02T03:40:10;94091.03;;;10.89;78.84
36378;BME280;22402;42.746;23.606;2022-11-02T03:42:19;94092.91;;;10.87;78.38
36378;BME280;22402;42.746;23.606;2022-11-02T03:44:48;94080.66;;;10.78;78.76
36378;BME280;22402;42.746;23.606;2022-11-02T03:47:16;94084.66;;;10.82;78.85
36378;BME280;22402;42.746;23.606;2022-11-02T03:49:46;94084.22;;;10.77;78.76
36378;BME280;22402;42.746;23.606;2022-11-02T03:52:18;94064.66;;;10.61;79.31
36378;BME280;22402;42.746;23.606;2022-11-02T03:54:57;94078.13;;;10.66;79.02
36378;BME280;22402;42.746;23.606;2022-11-02T03:57:33;94080.75;;;10.66;79.24
36378;BME280;22402;42.746;23.606;2022-11-02T04:00:15;94085.25;;;10.64;79.44
36378;BME280;22402;42.746;23.606;2022-11-02T04:02:46;94063.97;;;10.59;79.83
36378;BME280;22402;42.746;23.606;2022-11-02T04:05:12;94085.75;;;10.58;79.71
36378;BME280;22402;42.746;23.606;2022-11-02T04:07:40;94078.09;;;10.57;79.73
36378;BME280;22402;42.746;23.606;2022-11-02T04:10:07;94077.25;;;10.56;79.38
36378;BME280;22402;42.746;23.606;2022-11-02T04:12:32;94071.59;;;10.51;79.45
36378;BME280;22402;42.746;23.606;2022-11-02T04:14:57;94073.25;;;10.52;80.11
36378;BME280;22402;42.746;23.606;2022-11-02T04:17:23;94073.38;;;10.51;79.92
36378;BME280;22402;42.746;23.606;2022-11-02T04:19:49;94067.47;;;10.48;80.64
36378;BME280;22402;42.746;23.606;2022-11-02T04:22:15;94064.16;;;10.46;80.69
36378;BME280;22402;42.746;23.606;2022-11-02T04:24:40;94066.91;;;10.45;80.86
36378;BME280;22402;42.746;23.606;2022-11-02T04:27:06;94066.19;;;10.43;80.87
36378;BME280;22402;42.746;23.606;2022-11-02T04:29:31;94061.69;;;10.45;80.73
36378;BME280;22402;42.746;23.606;2022-11-02T04:31:57;94068.81;;;10.43;81.03
36378;BME280;22402;42.746;23.606;2022-11-02T04:34:22;94067.97;;;10.42;81.53
36378;BME280;22402;42.746;23.606;2022-11-02T04:36:47;94062.19;;;10.39;81.51
36378;BME280;22402;42.746;23.606;2022-11-02T04:39:12;94069.06;;;10.40;81.81
36378;BME280;22402;42.746;23.606;2022-11-02T04:41:38;94070.97;;;10.38;82.08
36378;BME280;22402;42.746;23.606;2022-11-02T04:44:03;94066.59;;;10.38;81.47
36378;BME280;22402;42.746;23.606;2022-11-02T04:46:31;94057.50;;;10.33;81.59
36378;BME280;22402;42.746;23.606;2022-11-02T04:48:57;94068.50;;;10.36;82.29
36378;BME280;22402;42.746;23.606;2022-11-02T04:51:24;94068.59;;;10.35;81.83
36378;BME280;22402;42.746;23.606;2022-11-02T04:53:51;94071.47;;;10.32;81.79
36378;BME280;22402;42.746;23.606;2022-11-02T04:56:17;94075.03;;;10.31;81.61
36378;BME280;22402;42.746;23.606;2022-11-02T04:58:46;94067.25;;;10.19;81.44
36378;BME280;22402;42.746;23.606;2022-11-02T05:01:13;94084.97;;;10.25;82.07
36378;BME280;22402;42.746;23.606;2022-11-02T05:03:40;94074.13;;;10.20;82.00
36378;BME280;22402;42.746;23.606;2022-11-02T05:06:06;94082.88;;;10.19;82.00
36378;BME280;22402;42.746;23.606;2022-11-02T05:08:31;94085.47;;;10.19;81.44
36378;BME280;22402;42.746;23.606;2022-11-02T05:10:57;94088.91;;;10.20;81.93
36378;BME280;22402;42.746;23.606;2022-11-02T05:13:24;94094.97;;;10.20;81.77
36378;BME280;22402;42.746;23.606;2022-11-02T05:15:50;94098.50;;;10.19;81.96
36378;BME280;22402;42.746;23.606;2022-11-02T05:18:15;94092.63;;;10.17;82.09
36378;BME280;22402;42.746;23.606;2022-11-02T05:20:41;94099.34;;;10.20;82.68
36378;BME280;22402;42.746;23.606;2022-11-02T05:23:07;94096.31;;;10.15;82.69
36378;BME280;22402;42.746;23.606;2022-11-02T05:25:32;94097.69;;;10.19;82.26
36378;BME280;22402;42.746;23.606;2022-11-02T05:27:57;94106.34;;;10.19;82.50
36378;BME280;22402;42.746;23.606;2022-11-02T05:30:23;94107.28;;;10.18;82.17
36378;BME280;22402;42.746;23.606;2022-11-02T05:32:48;94097.38;;;10.12;82.14
36378;BME280;22402;42.746;23.606;2022-11-02T05:35:14;94113.22;;;10.20;82.33
36378;BME280;22402;42.746;23.606;2022-11-02T05:37:40;94113.22;;;10.20;83.03
36378;BME280;22402;42.746;23.606;2022-11-02T05:40:05;94120.78;;;10.23;82.24
36378;BME280;22402;42.746;23.606;2022-11-02T05:42:31;94118.84;;;10.25;83.24
36378;BME280;22402;42.746;23.606;2022-11-02T05:44:56;94123.84;;;10.29;83.16
36378;BME280;22402;42.746;23.606;2022-11-02T05:47:21;94119.47;;;10.29;82.94
36378;BME280;22402;42.746;23.606;2022-11-02T05:49:47;94128.56;;;10.35;83.26
36378;BME280;22402;42.746;23.606;2022-11-02T05:52:13;94139.31;;;10.41;82.83
36378;BME280;22402;42.746;23.606;2022-11-02T05:54:38;94138.00;;;10.47;82.53
36378;BME280;22402;42.746;23.606;2022-11-02T05:57:04;94128.97;;;10.51;82.43
36378;BME280;22402;42.746;23.606;2022-11-02T05:59:29;94138.88;;;10.57;83.04
36378;BME280;22402;42.746;23.606;2022-11-02T06:01:54;94143.59;;;10.63;82.51
36378;BME280;22402;42.746;23.606;2022-11-02T06:04:20;94141.16;;;10.71;82.70
36378;BME280;22402;42.746;23.606;2022-11-02T06:06:45;94135.25;;;10.69;82.05
36378;BME280;22402;42.746;23.606;2022-11-02T06:09:10;94143.31;;;10.87;82.58
36378;BME280;22402;42.746;23.606;2022-11-02T06:11:36;94140.31;;;10.92;82.14
36378;BME280;22402;42.746;23.606;2022-11-02T06:14:01;94152.34;;;11.04;81.98
36378;BME280;22402;42.746;23.606;2022-11-02T06:16:26;94147.28;;;11.12;81.56
36378;BME280;22402;42.746;23.606;2022-11-02T06:18:51;94146.50;;;11.22;80.74
36378;BME280;22402;42.746;23.606;2022-11-02T06:21:17;94144.75;;;11.32;80.77
36378;BME280;22402;42.746;23.606;2022-11-02T06:23:42;94151.53;;;11.44;81.56
36378;BME280;22402;42.746;23.606;2022-11-02T06:26:10;94145.94;;;11.58;80.37
36378;BME280;22402;42.746;23.606;2022-11-02T06:28:36;94126.69;;;11.59;80.39
36378;BME280;22402;42.746;23.606;2022-11-02T06:31:01;94150.56;;;11.85;79.98
36378;BME280;22402;42.746;23.606;2022-11-02T06:33:26;94153.22;;;12.05;78.92
36378;BME280;22402;42.746;23.606;2022-11-02T06:35:53;94156.53;;;12.26;78.78
36378;BME280;22402;42.746;23.606;2022-11-02T06:38:18;94159.00;;;12.47;77.97
36378;BME280;22402;42.746;23.606;2022-11-02T06:40:52;94161.19;;;12.71;77.48
36378;BME280;22402;42.746;23.606;2022-11-02T06:43:18;94162.53;;;12.95;76.46
36378;BME280;22402;42.746;23.606;2022-11-02T06:45:43;94162.06;;;13.19;76.04
36378;BME280;22402;42.746;23.606;2022-11-02T06:48:09;94164.38;;;13.41;74.96
36378;BME280;22402;42.746;23.606;2022-11-02T06:50:34;94163.00;;;13.65;73.62
36378;BME280;22402;42.746;23.606;2022-11-02T06:52:59;94166.22;;;13.86;72.71
36378;BME280;22402;42.746;23.606;2022-11-02T06:55:25;94161.53;;;14.08;72.33
36378;BME280;22402;42.746;23.606;2022-11-02T06:57:50;94154.22;;;14.29;72.28
36378;BME280;22402;42.746;23.606;2022-11-02T07:00:15;94151.28;;;14.50;71.18
36378;BME280;22402;42.746;23.606;2022-11-02T07:02:41;94144.78;;;14.72;70.57
36378;BME280;22402;42.746;23.606;2022-11-02T07:05:07;94145.91;;;14.96;69.63
36378;BME280;22402;42.746;23.606;2022-11-02T07:07:32;94144.28;;;15.21;68.45
36378;BME280;22402;42.746;23.606;2022-11-02T07:09:58;94136.84;;;15.42;67.30
36378;BME280;22402;42.746;23.606;2022-11-02T07:12:23;94135.63;;;15.63;67.33
36378;BME280;22402;42.746;23.606;2022-11-02T07:14:48;94144.94;;;15.83;66.68
36378;BME280;22402;42.746;23.606;2022-11-02T07:17:14;94143.50;;;16.05;65.78
36378;BME280;22402;42.746;23.606;2022-11-02T07:19:39;94142.41;;;16.32;64.63
36378;BME280;22402;42.746;23.606;2022-11-02T07:22:05;94143.28;;;16.57;63.14
36378;BME280;22402;42.746;23.606;2022-11-02T07:24:30;94149.91;;;16.78;62.00
36378;BME280;22402;42.746;23.606;2022-11-02T07:26:55;94145.78;;;16.92;62.08
36378;BME280;22402;42.746;23.606;2022-11-02T07:29:24;94135.88;;;17.10;61.41
36378;BME280;22402;42.746;23.606;2022-11-02T07:31:49;94137.50;;;17.27;60.95
36378;BME280;22402;42.746;23.606;2022-11-02T07:34:14;94147.81;;;17.45;60.36
36378;BME280;22402;42.746;23.606;2022-11-02T07:36:40;94145.63;;;17.65;59.55
36378;BME280;22402;42.746;23.606;2022-11-02T07:39:05;94136.53;;;17.76;59.36
36378;BME280;22402;42.746;23.606;2022-11-02T07:41:31;94139.00;;;17.86;59.37
36378;BME280;22402;42.746;23.606;2022-11-02T07:43:56;94126.25;;;17.97;58.92
36378;BME280;22402;42.746;23.606;2022-11-02T07:46:21;94129.31;;;18.09;58.66
36378;BME280;22402;42.746;23.606;2022-11-02T07:48:47;94123.81;;;18.19;58.33
36378;BME280;22402;42.746;23.606;2022-11-02T07:51:12;94110.81;;;18.17;58.20
36378;BME280;22402;42.746;23.606;2022-11-02T07:53:39;94113.84;;;18.29;58.39
36378;BME280;22402;42.746;23.606;2022-11-02T07:56:05;94116.19;;;18.47;57.05
36378;BME280;22402;42.746;23.606;2022-11-02T07:58:31;94117.16;;;18.54;56.85
36378;BME280;22402;42.746;23.606;2022-11-02T08:01:00;94115.63;;;18.60;57.06
36378;BME280;22402;42.746;23.606;2022-11-02T08:03:26;94116.38;;;18.68;56.56
36378;BME280;22402;42.746;23.606;2022-11-02T08:05:52;94113.88;;;18.75;56.60
36378;BME280;22402;42.746;23.606;2022-11-02T08:08:19;94099.31;;;18.79;57.03
36378;BME280;22402;42.746;23.606;2022-11-02T08:10:48;94094.69;;;18.81;55.70
36378;BME280;22402;42.746;23.606;2022-11-02T08:13:15;94119.38;;;18.88;55.78
36378;BME280;22402;42.746;23.606;2022-11-02T08:15:41;94106.00;;;18.90;55.42
36378;BME280;22402;42.746;23.606;2022-11-02T08:18:15;94106.16;;;18.88;55.40
36378;BME280;22402;42.746;23.606;2022-11-02T08:20:41;94101.44;;;18.84;55.59
36378;BME280;22402;42.746;23.606;2022-11-02T08:23:09;94100.59;;;18.83;55.61
36378;BME280;22402;42.746;23.606;2022-11-02T08:25:36;94094.44;;;18.68;55.76
36378;BME280;22402;42.746;23.606;2022-11-02T08:28:03;94104.66;;;18.71;56.50
36378;BME280;22402;42.746;23.606;2022-11-02T08:30:30;94091.97;;;18.66;56.25
36378;BME280;22402;42.746;23.606;2022-11-02T08:33:04;94095.56;;;18.74;56.68
36378;BME280;22402;42.746;23.606;2022-11-02T08:35:30;94088.75;;;18.79;56.53
36378;BME280;22402;42.746;23.606;2022-11-02T08:37:56;94090.41;;;18.80;56.05
36378;BME280;22402;42.746;23.606;2022-11-02T08:40:22;94089.41;;;18.81;55.78
36378;BME280;22402;42.746;23.606;2022-11-02T08:42:47;94091.50;;;18.86;56.12
36378;BME280;22402;42.746;23.606;2022-11-02T08:45:13;94091.31;;;18.87;55.69
36378;BME280;22402;42.746;23.606;2022-11-02T08:47:40;94093.59;;;18.90;55.69
36378;BME280;22402;42.746;23.606;2022-11-02T08:50:06;94087.97;;;18.94;56.17
36378;BME280;22402;42.746;23.606;2022-11-02T08:52:35;94051.97;;;18.78;55.35
36378;BME280;22402;42.746;23.606;2022-11-02T08:55:01;94084.78;;;18.98;55.21
36378;BME280;22402;42.746;23.606;2022-11-02T08:57:27;94093.53;;;18.99;55.62
36378;BME280;22402;42.746;23.606;2022-11-02T08:59:52;94083.06;;;19.05;56.08
36378;BME280;22402;42.746;23.606;2022-11-02T09:02:17;94078.69;;;19.12;56.12
36378;BME280;22402;42.746;23.606;2022-11-02T09:04:43;94082.06;;;19.21;55.82
36378;BME280;22402;42.746;23.606;2022-11-02T09:07:08;94075.72;;;19.30;55.52
36378;BME280;22402;42.746;23.606;2022-11-02T09:09:33;94079.44;;;19.36;55.30
36378;BME280;22402;42.746;23.606;2022-11-02T09:11:59;94074.25;;;19.43;55.22
36378;BME280;22402;42.746;23.606;2022-11-02T09:14:24;94079.16;;;19.46;54.57
36378;BME280;22402;42.746;23.606;2022-11-02T09:16:49;94074.78;;;19.53;55.13
36378;BME280;22402;42.746;23.606;2022-11-02T09:19:15;94068.03;;;19.65;54.48
36378;BME280;22402;42.746;23.606;2022-11-02T09:21:40;94071.84;;;19.77;55.32
36378;BME280;22402;42.746;23.606;2022-11-02T09:24:06;94062.69;;;19.95;54.56
36378;BME280;22402;42.746;23.606;2022-11-02T09:26:31;94064.13;;;20.12;54.13
36378;BME280;22402;42.746;23.606;2022-11-02T09:28:57;94075.75;;;20.33;52.97
36378;BME280;22402;42.746;23.606;2022-11-02T09:31:22;94063.25;;;20.48;52.98
36378;BME280;22402;42.746;23.606;2022-11-02T09:33:47;94060.19;;;20.66;52.01
36378;BME280;22402;42.746;23.606;2022-11-02T09:36:13;94060.47;;;20.78;51.53
36378;BME280;22402;42.746;23.606;2022-11-02T09:38:38;94054.41;;;20.84;51.65
36378;BME280;22402;42.746;23.606;2022-11-02T09:41:11;94049.41;;;20.96;50.85
36378;BME280;22402;42.746;23.606;2022-11-02T09:44:27;94041.91;;;21.06;50.59
36378;BME280;22402;42.746;23.606;2022-11-02T09:46:55;94043.38;;;21.08;50.69
36378;BME280;22402;42.746;23.606;2022-11-02T09:49:22;94042.97;;;21.11;50.13
36378;BME280;22402;42.746;23.606;2022-11-02T09:51:54;94038.31;;;21.13;49.98
36378;BME280;22402;42.746;23.606;2022-11-02T09:54:44;94039.38;;;21.19;49.67
36378;BME280;22402;42.746;23.606;2022-11-02T09:57:27;94039.22;;;21.27;49.22
36378;BME280;22402;42.746;23.606;2022-11-02T09:59:52;94040.47;;;21.31;49.15
36378;BME280;22402;42.746;23.606;2022-11-02T10:05:41;94028.06;;;21.38;48.74
36378;BME280;22402;42.746;23.606;2022-11-02T10:08:18;94023.44;;;21.47;48.73
36378;BME280;22402;42.746;23.606;2022-11-02T10:13:50;94014.34;;;21.70;48.09
36378;BME280;22402;42.746;23.606;2022-11-02T10:16:26;94013.16;;;21.79;47.15
36378;BME280;22402;42.746;23.606;2022-11-02T10:18:54;93998.06;;;21.86;46.22
36378;BME280;22402;42.746;23.606;2022-11-02T10:21:23;94007.91;;;21.99;45.64
36378;BME280;22402;42.746;23.606;2022-11-02T10:23:52;94004.88;;;22.08;46.04
36378;BME280;22402;42.746;23.606;2022-11-02T10:26:23;93994.91;;;22.17;45.52
36378;BME280;22402;42.746;23.606;2022-11-02T10:28:58;93994.31;;;22.28;45.50
36378;BME280;22402;42.746;23.606;2022-11-02T10:31:30;93994.94;;;22.37;45.33
36378;BME280;22402;42.746;23.606;2022-11-02T10:39:48;93987.81;;;22.58;44.07
36378;BME280;22402;42.746;23.606;2022-11-02T10:48:17;93979.41;;;22.67;43.08
36378;BME280;22402;42.746;23.606;2022-11-02T10:50:51;93963.66;;;22.72;44.10
36378;BME280;22402;42.746;23.606;2022-11-02T10:53:18;93967.53;;;22.83;43.48
36378;BME280;22402;42.746;23.606;2022-11-02T10:56:13;93958.97;;;22.88;43.85
36378;BME280;22402;42.746;23.606;2022-11-02T10:58:48;93956.09;;;22.96;43.24
36378;BME280;22402;42.746;23.606;2022-11-02T11:01:15;93960.16;;;23.05;42.93
36378;BME280;22402;42.746;23.606;2022-11-02T11:06:28;93954.00;;;23.18;42.39
36378;BME280;22402;42.746;23.606;2022-11-02T11:09:16;93950.09;;;23.27;43.07
36378;BME280;22402;42.746;23.606;2022-11-02T11:11:52;93948.63;;;23.31;42.37
36378;BME280;22402;42.746;23.606;2022-11-02T11:14:19;93946.16;;;23.36;42.20
36378;BME280;22402;42.746;23.606;2022-11-02T11:19:38;93942.66;;;23.42;42.42
36378;BME280;22402;42.746;23.606;2022-11-02T11:22:25;93937.53;;;23.48;43.38
36378;BME280;22402;42.746;23.606;2022-11-02T11:24:51;93939.56;;;23.46;42.32
36378;BME280;22402;42.746;23.606;2022-11-02T11:27:21;93930.75;;;23.52;41.48
36378;BME280;22402;42.746;23.606;2022-11-02T11:32:15;93920.72;;;23.54;42.18
36378;BME280;22402;42.746;23.606;2022-11-02T11:34:43;93919.47;;;23.56;42.08
36378;BME280;22402;42.746;23.606;2022-11-02T11:37:11;93925.19;;;23.60;41.46
36378;BME280;22402;42.746;23.606;2022-11-02T11:39:39;93923.72;;;23.64;42.04
36378;BME280;22402;42.746;23.606;2022-11-02T11:42:16;93921.44;;;23.67;41.75
36378;BME280;22402;42.746;23.606;2022-11-02T11:44:49;93918.19;;;23.72;41.41
36378;BME280;22402;42.746;23.606;2022-11-02T11:47:24;93917.16;;;23.73;41.07
36378;BME280;22402;42.746;23.606;2022-11-02T11:49:50;93912.00;;;23.78;41.86
36378;BME280;22402;42.746;23.606;2022-11-02T11:52:22;93906.25;;;23.81;42.12
36378;BME280;22402;42.746;23.606;2022-11-02T11:54:57;93903.16;;;23.84;40.45
36378;BME280;22402;42.746;23.606;2022-11-02T11:59:49;93895.97;;;23.92;39.42
36378;BME280;22402;42.746;23.606;2022-11-02T12:02:25;93897.16;;;23.96;39.18
36378;BME280;22402;42.746;23.606;2022-11-02T12:04:58;93880.00;;;23.92;39.25
36378;BME280;22402;42.746;23.606;2022-11-02T12:07:34;93889.34;;;24.01;38.82
36378;BME280;22402;42.746;23.606;2022-11-02T12:15:13;93880.63;;;24.12;38.61
36378;BME280;22402;42.746;23.606;2022-11-02T12:24:19;93867.06;;;24.20;38.48
36378;BME280;22402;42.746;23.606;2022-11-02T12:32:57;93852.16;;;24.38;37.18
36378;BME280;22402;42.746;23.606;2022-11-02T12:38:21;93855.56;;;24.51;37.43
36378;BME280;22402;42.746;23.606;2022-11-02T12:41:00;93848.53;;;24.57;36.98
36378;BME280;22402;42.746;23.606;2022-11-02T12:43:37;93839.22;;;24.66;36.69
36378;BME280;22402;42.746;23.606;2022-11-02T12:46:11;93845.88;;;24.75;36.38
36378;BME280;22402;42.746;23.606;2022-11-02T12:48:46;93842.69;;;24.85;36.10
36378;BME280;22402;42.746;23.606;2022-11-02T12:51:17;93836.25;;;24.93;35.80
36378;BME280;22402;42.746;23.606;2022-11-02T12:53:48;93831.84;;;24.98;34.20
36378;BME280;22402;42.746;23.606;2022-11-02T12:56:22;93832.81;;;25.04;34.49
36378;BME280;22402;42.746;23.606;2022-11-02T12:58:49;93823.94;;;25.10;33.21
36378;BME280;22402;42.746;23.606;2022-11-02T13:01:29;93824.09;;;25.15;32.53
36378;BME280;22402;42.746;23.606;2022-11-02T13:04:20;93816.00;;;25.22;31.58
36378;BME280;22402;42.746;23.606;2022-11-02T13:06:47;93801.84;;;25.21;30.88
36378;BME280;22402;42.746;23.606;2022-11-02T13:09:35;93810.59;;;25.29;30.54
36378;BME280;22402;42.746;23.606;2022-11-02T13:12:06;93813.41;;;25.34;30.32
36378;BME280;22402;42.746;23.606;2022-11-02T13:14:54;93805.97;;;25.36;29.71
36378;BME280;22402;42.746;23.606;2022-11-02T13:17:41;93806.44;;;25.33;29.90
36378;BME280;22402;42.746;23.606;2022-11-02T13:23:37;93805.97;;;25.36;29.70
36378;BME280;22402;42.746;23.606;2022-11-02T13:26:24;93804.38;;;25.35;29.49
36378;BME280;22402;42.746;23.606;2022-11-02T13:28:58;93805.38;;;25.34;29.48
36378;BME280;22402;42.746;23.606;2022-11-02T13:31:34;93807.50;;;25.32;29.80
36378;BME280;22402;42.746;23.606;2022-11-02T13:34:09;93800.50;;;25.31;29.54
36378;BME280;22402;42.746;23.606;2022-11-02T13:36:37;93800.16;;;25.27;29.51
36378;BME280;22402;42.746;23.606;2022-11-02T13:39:30;93799.44;;;25.20;29.17
36378;BME280;22402;42.746;23.606;2022-11-02T13:42:40;93800.09;;;25.15;29.54
36378;BME280;22402;42.746;23.606;2022-11-02T13:50:51;93798.47;;;24.96;27.97
36378;BME280;22402;42.746;23.606;2022-11-02T13:53:26;93800.84;;;24.86;27.98
36378;BME280;22402;42.746;23.606;2022-11-02T13:55:58;93779.53;;;24.67;28.48
36378;BME280;22402;42.746;23.606;2022-11-02T13:58:26;93793.00;;;24.72;28.54
36378;BME280;22402;42.746;23.606;2022-11-02T14:01:01;93798.84;;;24.63;28.57
36378;BME280;22402;42.746;23.606;2022-11-02T14:03:28;93803.22;;;24.57;28.89
36378;BME280;22402;42.746;23.606;2022-11-02T14:05:58;93790.03;;;24.44;29.05
36378;BME280;22402;42.746;23.606;2022-11-02T14:08:34;93796.81;;;24.40;29.16
36378;BME280;22402;42.746;23.606;2022-11-02T14:11:23;93790.78;;;24.26;28.82
36378;BME280;22402;42.746;23.606;2022-11-02T14:32:40;93805.69;;;23.52;30.96
36378;BME280;22402;42.746;23.606;2022-11-02T14:35:28;93803.50;;;23.42;31.59
36378;BME280;22402;42.746;23.606;2022-11-02T14:49:27;93809.88;;;22.89;33.53